Visit the IPS Meteostar Home Page IPSM San Jose International Airport FORECAST

San Jose, California

76

85

85

84

85

85

85

85

58
58
62
62
62
62
62

1 miles away at San Jose International Airport 23:53 GMT

Weather:

Clear

Wind:

NW 13 mph

Temperature:

76 ° F

Pressure:

29.87

Dew Point:

61 ° F

Relative Humidity:

59

Feels Like:

76 ° F

Visibility:

10 miles


Aviation Observations:

KSJC 192353Z 31011KT 10SM FEW020 24/16 A2985 RMK AO2 SLP106 T02440161 10267 20222 56012 $ =

National Weather Service Forecast:
Santa Clara Valley Including San Jose

santa clara valley...including san jose-
300 PM PDT SAT AUG 19 2017

REST OF TODAY

Sunny. Highs in the 80s. Northwest winds 10 to 20 mph.

TONIGHT

Mostly clear. Lows in the upper 50s. Northwest winds 10 to 15 mph...becoming southeast 10 to 20 mph after midnight.

SUNDAY

Sunny. Highs in the mid 80s. Southeast winds 10 to 20 mph...becoming west 10 to 15 mph in the afternoon.

SUNDAY NIGHT

Mostly clear. Lows in the lower 60s. Northwest winds 5 to 15 mph...becoming southeast 5 to 10 mph after midnight.

MONDAY

Sunny. Highs in the lower to mid 80s. East winds 5 to 10 mph increasing to northwest 15 to 20 mph in the afternoon.

MONDAY NIGHT

Mostly clear. Lows in the lower 60s.

TUESDAY THROUGH FRIDAY

Mostly clear. Highs in the 80s. Lows in the upper 50s.
temperature / precipitation

san jose 82 61 82 / 0 0 0
morgan hill 87 57 86 / 0 0 0


Visit the IPS Meteostar Home Page